createdAt,value
2018-05-11T00:02:11.790Z,20.73
2018-05-11T00:04:39.250Z,24.15
2018-05-11T00:07:06.691Z,27.15
2018-05-11T00:09:34.163Z,20.60
2018-05-11T00:12:01.614Z,23.23
2018-05-11T00:14:29.090Z,26.92
2018-05-11T00:16:56.583Z,23.35
2018-05-11T00:19:24.038Z,24.05
2018-05-11T00:21:51.502Z,22.92
2018-05-11T00:24:19.730Z,22.95
2018-05-11T00:26:47.177Z,20.33
2018-05-11T00:29:14.680Z,20.70
2018-05-11T00:31:42.125Z,23.10
2018-05-11T00:34:09.582Z,25.05
2018-05-11T00:36:37.040Z,18.30
2018-05-11T00:39:04.508Z,29.60
2018-05-11T00:41:31.963Z,20.73
2018-05-11T00:43:59.455Z,25.23
2018-05-11T00:46:27.661Z,26.00
2018-05-11T00:48:55.122Z,21.10
2018-05-11T00:51:22.584Z,20.83
2018-05-11T00:53:50.047Z,32.17
2018-05-11T00:56:17.498Z,28.17
2018-05-11T00:58:44.977Z,27.73
2018-05-11T01:01:12.430Z,25.27
2018-05-11T01:03:39.898Z,22.95
2018-05-11T01:06:07.354Z,26.85
2018-05-11T01:08:34.842Z,25.60
2018-05-11T01:11:02.305Z,27.20
2018-05-11T01:13:29.771Z,24.08
2018-05-11T01:15:57.230Z,24.12
2018-05-11T01:18:24.691Z,26.75
2018-05-11T01:20:52.142Z,21.80
2018-05-11T01:23:19.607Z,28.42
2018-05-11T01:25:47.061Z,19.60
2018-05-11T01:28:14.533Z,30.37
2018-05-11T01:30:41.990Z,29.20
2018-05-11T01:33:10.230Z,32.47
2018-05-11T01:35:37.681Z,27.25
2018-05-11T01:38:05.153Z,25.17
2018-05-11T01:40:32.610Z,24.95
2018-05-11T01:43:00.051Z,23.67
2018-05-11T01:45:27.519Z,26.20
2018-05-11T01:47:54.967Z,23.00
2018-05-11T01:50:22.430Z,27.37
2018-05-11T01:52:49.871Z,24.48
2018-05-11T01:55:18.112Z,26.25
2018-05-11T01:57:45.556Z,33.47
2018-05-11T02:00:13.045Z,26.50
2018-05-11T02:02:40.496Z,26.77
2018-05-11T02:05:07.962Z,29.52
2018-05-11T02:07:36.189Z,30.48
2018-05-11T02:10:03.646Z,25.92
2018-05-11T02:12:31.198Z,25.70
2018-05-11T02:14:58.643Z,31.83
2018-05-11T02:17:26.092Z,25.88
2018-05-11T02:19:53.553Z,28.95
2018-05-11T02:22:20.999Z,31.52
2018-05-11T02:24:48.469Z,24.60
2018-05-11T02:27:15.927Z,27.42
2018-05-11T02:29:43.373Z,30.75
2018-05-11T02:32:10.822Z,26.67
2018-05-11T02:34:38.291Z,25.95
2018-05-11T02:37:05.752Z,29.00
2018-05-11T02:39:33.186Z,26.42
2018-05-11T02:42:01.402Z,29.05
2018-05-11T02:44:28.858Z,25.45
2018-05-11T02:46:56.309Z,28.23
2018-05-11T02:49:23.770Z,28.90
2018-05-11T02:51:51.566Z,29.45
2018-05-11T02:54:18.978Z,31.35
2018-05-11T02:56:46.438Z,31.42
2018-05-11T02:59:13.888Z,29.23
2018-05-11T03:01:41.337Z,29.83
2018-05-11T03:04:08.781Z,25.88
2018-05-11T03:06:36.233Z,30.42
2018-05-11T03:09:04.443Z,22.62
2018-05-11T03:11:31.898Z,29.12
2018-05-11T03:13:59.401Z,32.13
2018-05-11T03:16:26.883Z,37.72
2018-05-11T03:18:55.092Z,33.67
2018-05-11T03:21:22.545Z,30.80
2018-05-11T03:23:49.993Z,32.03
2018-05-11T03:26:17.436Z,27.87
2018-05-11T03:28:44.884Z,25.85
2018-05-11T03:31:13.111Z,26.40
2018-05-11T03:33:40.546Z,28.23
2018-05-11T03:36:08.012Z,29.33
2018-05-11T03:38:35.458Z,31.35
2018-05-11T03:41:02.909Z,25.58
2018-05-11T03:43:30.365Z,30.75
2018-05-11T03:45:57.805Z,26.98
2018-05-11T03:48:25.262Z,30.55
2018-05-11T03:50:52.724Z,29.08
2018-05-11T03:53:21.023Z,30.80
2018-05-11T03:55:48.481Z,26.15
2018-05-11T03:58:15.931Z,22.83
2018-05-11T04:00:43.374Z,25.45
2018-05-11T04:03:22.710Z,25.80
2018-05-11T04:09:02.693Z,27.80
2018-05-11T04:11:30.154Z,30.12
2018-05-11T04:13:57.598Z,32.25
2018-05-11T04:16:25.034Z,30.62
2018-05-11T04:18:53.266Z,28.42
2018-05-11T04:21:20.717Z,22.90
2018-05-11T04:23:48.181Z,33.83
2018-05-11T04:26:15.634Z,22.48
2018-05-11T04:28:43.854Z,26.15
2018-05-11T04:31:12.080Z,27.48
2018-05-11T04:33:39.556Z,27.17
2018-05-11T04:36:07.010Z,20.62
2018-05-11T04:38:34.449Z,25.73
2018-05-11T04:41:01.909Z,22.83
2018-05-11T04:43:29.349Z,28.12
2018-05-11T04:45:56.845Z,25.50
2018-05-11T04:48:24.278Z,29.15
2018-05-11T04:50:51.738Z,25.40
2018-05-11T04:53:19.274Z,28.02
2018-05-11T04:55:46.717Z,28.62
2018-05-11T04:58:14.170Z,27.20
2018-05-11T05:00:42.400Z,24.50
2018-05-11T05:03:10.623Z,28.52
2018-05-11T05:05:38.070Z,35.03
2018-05-11T05:08:06.282Z,23.83
2018-05-11T05:10:33.722Z,26.67
2018-05-11T05:13:01.166Z,23.55
2018-05-11T05:15:29.392Z,31.10
2018-05-11T05:17:56.845Z,25.40
2018-05-11T05:20:24.292Z,27.27
2018-05-11T05:22:51.754Z,30.33
2018-05-11T05:25:19.201Z,28.10
2018-05-11T05:27:47.432Z,27.50
2018-05-11T05:30:14.867Z,28.35
2018-05-11T05:32:42.313Z,29.92
2018-05-11T05:35:09.767Z,27.80
2018-05-11T05:37:37.221Z,26.90
2018-05-11T05:40:05.444Z,28.60
2018-05-11T05:42:33.663Z,34.72
2018-05-11T05:45:01.094Z,28.38
2018-05-11T05:47:28.555Z,38.65
2018-05-11T05:49:55.994Z,30.67
2018-05-11T05:52:23.442Z,36.78
2018-05-11T05:54:50.893Z,38.67
2018-05-11T05:57:19.108Z,37.20
2018-05-11T05:59:46.560Z,35.20
2018-05-11T06:02:14.007Z,30.85
2018-05-11T06:04:41.508Z,33.75
2018-05-11T06:07:09.642Z,33.75
2018-05-11T06:09:37.092Z,30.83
2018-05-11T06:12:04.551Z,32.15
2018-05-11T06:14:31.985Z,28.08
2018-05-11T06:16:59.435Z,26.98
2018-05-11T06:19:26.869Z,25.62
2018-05-11T06:21:54.406Z,27.17
2018-05-11T06:24:22.554Z,30.17
2018-05-11T06:26:50.008Z,31.12
2018-05-11T06:29:17.453Z,35.88
2018-05-11T06:31:44.901Z,30.02
2018-05-11T06:34:13.118Z,30.23
2018-05-11T06:36:40.610Z,38.28
2018-05-11T06:39:08.044Z,30.30
2018-05-11T06:41:36.258Z,30.40
2018-05-11T06:44:04.482Z,32.70
2018-05-11T06:46:31.945Z,33.25
2018-05-11T06:48:59.394Z,27.98
2018-05-11T06:51:26.857Z,29.15
2018-05-11T06:53:54.438Z,27.62
2018-05-11T06:56:21.889Z,26.50
2018-05-11T06:58:49.345Z,32.85
2018-05-11T07:01:16.789Z,33.15
2018-05-11T07:03:44.241Z,33.40
2018-05-11T07:06:11.716Z,32.20
2018-05-11T07:08:39.177Z,29.85
2018-05-11T07:11:06.635Z,32.33
2018-05-11T07:13:34.077Z,26.37
2018-05-11T07:16:01.538Z,28.20
2018-05-11T07:18:28.993Z,25.15
2018-05-11T07:20:56.433Z,27.45
2018-05-11T07:23:23.895Z,32.80
2018-05-11T07:25:51.349Z,31.00
2018-05-11T07:28:18.788Z,22.33
2018-05-11T07:30:46.218Z,24.60
2018-05-11T07:33:13.684Z,22.17
2018-05-11T07:35:41.148Z,25.12
2018-05-11T07:38:08.600Z,22.98
2018-05-11T07:40:36.049Z,22.25
2018-05-11T07:43:04.299Z,24.15
2018-05-11T07:45:31.714Z,20.67
2018-05-11T07:47:59.153Z,22.40
2018-05-11T07:50:26.596Z,22.62
2018-05-11T07:52:54.805Z,20.52
2018-05-11T07:55:22.241Z,19.92
2018-05-11T07:57:49.705Z,21.87
2018-05-11T08:00:17.142Z,21.15
2018-05-11T08:02:44.594Z,19.42
2018-05-11T08:05:12.825Z,18.62
2018-05-11T08:07:40.310Z,21.05
2018-05-11T08:10:07.757Z,20.23
2018-05-11T08:12:35.217Z,15.65
2018-05-11T08:15:02.656Z,17.92
2018-05-11T08:17:31.606Z,19.80
2018-05-11T08:19:59.075Z,19.25
2018-05-11T08:22:26.525Z,20.95
2018-05-11T08:24:53.971Z,18.37
2018-05-11T08:27:21.405Z,17.45
2018-05-11T08:29:48.847Z,17.30
2018-05-11T08:32:17.065Z,18.37
2018-05-11T08:34:45.135Z,16.40
2018-05-11T08:37:12.593Z,17.50
2018-05-11T08:39:40.044Z,19.55
2018-05-11T08:42:07.480Z,23.55
2018-05-11T08:44:35.698Z,18.85
2018-05-11T08:47:03.155Z,21.35
2018-05-11T08:49:31.377Z,18.77
2018-05-11T08:51:59.719Z,20.52
2018-05-11T08:54:27.065Z,18.17
2018-05-11T08:56:54.507Z,21.30
2018-05-11T08:59:21.976Z,18.60
2018-05-11T09:01:49.409Z,14.70
2018-05-11T09:04:16.867Z,16.67
2018-05-11T09:06:44.312Z,15.60
2018-05-11T09:09:11.762Z,17.45
2018-05-11T09:11:39.965Z,15.57
2018-05-11T09:14:07.424Z,17.42
2018-05-11T09:16:34.869Z,15.43
2018-05-11T09:19:02.353Z,18.37
2018-05-11T09:21:29.875Z,15.68
2018-05-11T09:23:57.255Z,20.50
2018-05-11T09:26:24.697Z,21.10
2018-05-11T09:28:52.153Z,27.20
2018-05-11T09:31:19.621Z,20.15
2018-05-11T09:33:47.073Z,20.25
2018-05-11T09:36:14.521Z,21.73
2018-05-11T09:38:41.980Z,19.42
2018-05-11T09:41:09.441Z,22.02
2018-05-11T09:43:36.881Z,18.52
2018-05-11T09:46:04.328Z,18.05
2018-05-11T09:48:32.552Z,19.15
2018-05-11T09:50:59.995Z,22.37
2018-05-11T09:53:27.499Z,16.87
2018-05-11T09:55:54.942Z,19.05
2018-05-11T09:58:22.394Z,15.70
2018-05-11T10:00:49.890Z,12.70
2018-05-11T10:03:17.350Z,15.93
2018-05-11T10:05:45.585Z,17.70
2018-05-11T10:08:13.035Z,17.15
2018-05-11T10:10:40.512Z,15.52
2018-05-11T10:13:07.961Z,17.17
2018-05-11T10:15:35.458Z,20.27
2018-05-11T10:18:03.660Z,15.98
2018-05-11T10:20:31.881Z,12.20
2018-05-11T10:22:59.311Z,15.10
2018-05-11T10:25:26.769Z,16.00
2018-05-11T10:27:54.201Z,11.35
2018-05-11T10:30:21.655Z,11.95
2018-05-11T10:32:49.098Z,13.82
2018-05-11T10:35:16.553Z,15.35
2018-05-11T10:37:43.988Z,14.57
2018-05-11T10:40:12.197Z,13.13
2018-05-11T10:42:39.665Z,11.98
2018-05-11T10:45:07.135Z,13.32
2018-05-11T10:47:34.574Z,14.35
2018-05-11T10:50:02.080Z,12.13
2018-05-11T10:52:29.510Z,14.73
2018-05-11T10:54:56.983Z,18.45
2018-05-11T10:57:25.173Z,15.35
2018-05-11T10:59:53.381Z,13.10
2018-05-11T11:02:20.964Z,16.37
2018-05-11T11:04:48.322Z,17.45
2018-05-11T11:07:15.765Z,17.83
2018-05-11T11:09:43.229Z,15.20
2018-05-11T11:12:10.683Z,14.40
2018-05-11T11:14:38.131Z,11.98
2018-05-11T11:17:05.566Z,13.40
2018-05-11T11:19:33.005Z,14.68
2018-05-11T11:22:01.215Z,16.20
2018-05-11T11:24:28.650Z,14.27
2018-05-11T11:26:56.091Z,15.63
2018-05-11T11:29:24.313Z,16.80
2018-05-11T11:31:52.521Z,14.23
2018-05-11T11:34:20.011Z,14.93
2018-05-11T11:36:47.418Z,13.93
2018-05-11T11:39:14.915Z,15.68
2018-05-11T11:41:42.361Z,14.07
2018-05-11T11:44:13.049Z,12.65
2018-05-11T11:46:40.494Z,18.35
2018-05-11T11:49:07.949Z,14.25
2018-05-11T11:51:35.387Z,16.12
2018-05-11T11:54:02.843Z,14.90
2018-05-11T11:56:30.378Z,17.00
2018-05-11T11:58:58.506Z,14.05
2018-05-11T12:01:26.042Z,19.87
2018-05-11T12:03:53.482Z,14.30
2018-05-11T12:06:21.714Z,16.23
2018-05-11T12:08:49.256Z,19.48
2018-05-11T12:11:16.689Z,17.75
2018-05-11T12:13:44.129Z,14.93
2018-05-11T12:16:11.574Z,18.95
2018-05-11T12:18:39.775Z,20.48
2018-05-11T12:21:07.230Z,20.27
2018-05-11T12:23:34.665Z,18.08
2018-05-11T12:26:02.881Z,18.75
2018-05-11T12:28:30.323Z,21.90
2018-05-11T12:30:57.818Z,21.83
2018-05-11T12:33:25.294Z,16.80
2018-05-11T12:35:52.758Z,17.58
2018-05-11T12:38:20.204Z,18.40
2018-05-11T12:40:48.436Z,19.12
2018-05-11T12:43:15.872Z,18.27
2018-05-11T12:45:43.327Z,14.75
2018-05-11T12:48:11.516Z,20.30
2018-05-11T12:50:38.966Z,19.45
2018-05-11T12:53:06.405Z,20.88
2018-05-11T12:55:34.691Z,19.17
2018-05-11T12:58:02.145Z,17.55
2018-05-11T13:00:30.403Z,19.33
2018-05-11T13:02:57.837Z,15.77
2018-05-11T13:05:25.300Z,17.10
2018-05-11T13:07:52.739Z,13.85
2018-05-11T13:10:20.972Z,11.27
2018-05-11T13:12:48.469Z,12.88
2018-05-11T13:15:15.877Z,13.75
2018-05-11T13:17:43.362Z,14.48
2018-05-11T13:20:10.806Z,12.85
2018-05-11T13:22:38.253Z,12.25
2018-05-11T13:25:05.710Z,12.45
2018-05-11T13:27:33.420Z,13.85
2018-05-11T13:30:00.878Z,11.50
2018-05-11T13:32:28.329Z,12.55
2018-05-11T13:34:55.763Z,11.52
2018-05-11T13:37:23.216Z,13.62
2018-05-11T13:39:50.655Z,10.57
2018-05-11T13:42:18.096Z,11.60
2018-05-11T13:44:46.303Z,9.70
2018-05-11T13:47:13.753Z,11.60
2018-05-11T13:49:41.205Z,10.35
2018-05-11T13:52:08.671Z,10.35
2018-05-11T13:54:36.103Z,8.65
2018-05-11T13:57:04.414Z,8.60
2018-05-11T13:59:31.859Z,11.75
2018-05-11T14:01:59.318Z,8.20
2018-05-11T14:04:26.766Z,7.55
2018-05-11T14:06:54.217Z,9.52
2018-05-11T14:09:21.656Z,7.15
2018-05-11T14:11:49.865Z,11.82
2018-05-11T14:14:17.302Z,6.93
2018-05-11T14:16:44.745Z,7.45
2018-05-11T14:19:12.993Z,8.75
2018-05-11T14:21:40.450Z,7.28
2018-05-11T14:24:07.902Z,6.93
2018-05-11T14:26:35.343Z,5.85
2018-05-11T14:29:02.777Z,11.73
2018-05-11T14:31:30.270Z,10.18
2018-05-11T14:33:57.702Z,9.02
2018-05-11T14:36:25.154Z,8.20
2018-05-11T14:38:52.626Z,7.93
2018-05-11T14:41:20.061Z,8.30
2018-05-11T14:43:47.502Z,9.20
2018-05-11T14:46:14.965Z,7.00
2018-05-11T14:48:42.412Z,7.82
2018-05-11T14:51:09.851Z,10.57
2018-05-11T14:53:38.059Z,7.78
2018-05-11T14:56:05.824Z,6.80
2018-05-11T14:58:33.269Z,8.52
2018-05-11T15:01:00.713Z,8.95
2018-05-11T15:03:28.934Z,7.85
2018-05-11T15:05:57.153Z,6.28
2018-05-11T15:08:25.360Z,7.57
2018-05-11T15:10:52.830Z,8.90
2018-05-11T15:13:20.281Z,5.68
2018-05-11T15:15:47.713Z,5.32
2018-05-11T15:18:15.159Z,6.43
2018-05-11T15:20:43.353Z,9.07
2018-05-11T15:23:10.790Z,7.30
2018-05-11T15:25:38.981Z,6.28
2018-05-11T15:28:06.418Z,6.60
2018-05-11T15:30:34.627Z,9.63
2018-05-11T15:33:02.066Z,4.50
2018-05-11T15:35:29.506Z,4.80
2018-05-11T15:37:57.726Z,4.00
2018-05-11T15:40:25.233Z,5.82
2018-05-11T15:42:52.615Z,4.43
2018-05-11T15:45:20.053Z,6.32
2018-05-11T15:47:47.522Z,5.18
2018-05-11T15:50:15.702Z,4.20
2018-05-11T15:52:43.143Z,5.22
2018-05-11T15:55:10.577Z,8.93
2018-05-11T15:57:38.789Z,4.18
2018-05-11T16:00:06.217Z,4.70
2018-05-11T16:02:34.419Z,3.85
2018-05-11T16:05:01.851Z,3.60
2018-05-11T16:07:30.092Z,3.37
2018-05-11T16:09:57.579Z,4.12
2018-05-11T16:12:25.784Z,2.60
2018-05-11T16:14:53.224Z,6.72
2018-05-11T16:17:21.447Z,4.12
2018-05-11T16:19:48.892Z,3.70
2018-05-11T16:22:16.325Z,3.95
2018-05-11T16:24:43.761Z,2.65
2018-05-11T16:27:11.954Z,7.05
2018-05-11T16:29:39.389Z,2.53
2018-05-11T16:32:07.592Z,2.00
2018-05-11T16:34:35.046Z,2.37
2018-05-11T16:37:02.494Z,4.22
2018-05-11T16:39:29.950Z,4.40
2018-05-11T16:41:58.143Z,3.33
2018-05-11T16:44:25.590Z,4.97
2018-05-11T16:46:53.033Z,3.35
2018-05-11T16:49:20.477Z,2.53
2018-05-11T16:51:48.685Z,3.53
2018-05-11T16:54:16.165Z,3.60
2018-05-11T16:56:43.628Z,5.50
2018-05-11T16:59:11.877Z,4.80
2018-05-11T17:01:39.367Z,5.15
2018-05-11T17:04:06.856Z,6.87
2018-05-11T17:06:35.056Z,4.97
2018-05-11T17:09:02.505Z,4.20
2018-05-11T17:11:29.939Z,5.45
2018-05-11T17:13:57.782Z,3.45
2018-05-11T17:16:25.295Z,3.15
2018-05-11T17:18:52.727Z,7.00
2018-05-11T17:21:20.916Z,5.00
2018-05-11T17:23:48.365Z,6.65
2018-05-11T17:26:15.832Z,2.67
2018-05-11T17:28:43.395Z,3.80
2018-05-11T17:31:10.850Z,3.75
2018-05-11T17:33:38.284Z,4.05
2018-05-11T17:36:06.533Z,6.07
2018-05-11T17:38:34.017Z,3.12
2018-05-11T17:41:02.207Z,3.25
2018-05-11T17:43:29.653Z,3.95
2018-05-11T17:45:57.865Z,3.87
2018-05-11T17:48:25.317Z,5.62
2018-05-11T17:50:52.743Z,6.37
2018-05-11T17:53:20.195Z,3.22
2018-05-11T17:55:48.421Z,10.05
2018-05-11T17:58:15.879Z,4.03
2018-05-11T18:00:43.344Z,4.12
2018-05-11T18:03:10.838Z,3.62
2018-05-11T18:05:38.252Z,3.45
2018-05-11T18:08:05.733Z,4.12
2018-05-11T18:10:33.175Z,3.12
2018-05-11T18:13:00.630Z,6.60
2018-05-11T18:15:28.066Z,3.35
2018-05-11T18:17:55.514Z,5.25
2018-05-11T18:20:22.958Z,3.80
2018-05-11T18:22:50.418Z,5.12
2018-05-11T18:25:17.870Z,4.47
2018-05-11T18:27:45.317Z,6.85
2018-05-11T18:30:12.757Z,6.07
2018-05-11T18:32:40.953Z,7.43
2018-05-11T18:35:08.401Z,6.30
2018-05-11T18:37:35.845Z,4.18
2018-05-11T18:40:04.083Z,5.00
2018-05-11T18:42:31.525Z,6.07
2018-05-11T18:44:58.989Z,4.80
2018-05-11T18:47:26.457Z,7.22
2018-05-11T18:49:53.913Z,6.70
2018-05-11T18:52:21.376Z,5.82
2018-05-11T18:54:48.833Z,8.50
2018-05-11T18:57:16.379Z,6.53
2018-05-11T18:59:43.861Z,5.72
2018-05-11T19:02:11.301Z,5.72
2018-05-11T19:04:38.794Z,7.57
2018-05-11T19:07:06.998Z,6.07
2018-05-11T19:09:34.453Z,4.15
2018-05-11T19:12:01.895Z,5.57
2018-05-11T19:14:29.356Z,7.05
2018-05-11T19:16:56.818Z,3.87
2018-05-11T19:19:24.247Z,7.20
2018-05-11T19:21:52.454Z,5.43
2018-05-11T19:24:19.947Z,7.30
2018-05-11T19:26:47.382Z,7.68
2018-05-11T19:29:14.825Z,5.55
2018-05-11T19:31:42.286Z,6.97
2018-05-11T19:34:09.743Z,10.23
2018-05-11T19:36:37.170Z,8.15
2018-05-11T19:39:06.336Z,7.72
2018-05-11T19:41:33.798Z,9.27
2018-05-11T19:44:01.268Z,6.87
2018-05-11T19:46:29.475Z,8.77
2018-05-11T19:48:56.919Z,7.22
2018-05-11T19:51:25.211Z,8.10
2018-05-11T19:53:52.646Z,9.73
2018-05-11T19:56:20.077Z,10.77
2018-05-11T19:58:47.534Z,9.13
2018-05-11T20:01:14.973Z,9.02
2018-05-11T20:03:42.464Z,13.48
2018-05-11T20:06:10.681Z,10.50
2018-05-11T20:08:38.238Z,8.60
2018-05-11T20:11:05.716Z,8.10
2018-05-11T20:13:33.183Z,9.57
2018-05-11T20:16:00.633Z,8.05
2018-05-11T20:18:28.088Z,11.85
2018-05-11T20:20:55.542Z,14.80
2018-05-11T20:23:22.989Z,12.07
2018-05-11T20:25:50.432Z,9.10
2018-05-11T20:28:17.884Z,10.38
2018-05-11T20:30:45.323Z,10.10
2018-05-11T20:33:12.778Z,9.45
2018-05-11T20:35:41.038Z,11.38
2018-05-11T20:38:09.242Z,8.10
2018-05-11T20:40:36.682Z,11.65
2018-05-11T20:43:04.117Z,12.15
2018-05-11T20:45:32.333Z,14.95
2018-05-11T20:47:59.769Z,10.10
2018-05-11T20:50:27.992Z,11.55
2018-05-11T20:52:55.446Z,12.82
2018-05-11T20:55:22.881Z,9.63
2018-05-11T20:57:50.330Z,13.13
2018-05-11T21:00:17.874Z,12.48
2018-05-11T21:02:46.136Z,9.15
2018-05-11T21:05:14.375Z,10.48
2018-05-11T21:07:41.813Z,11.45
2018-05-11T21:10:09.272Z,10.57
2018-05-11T21:12:36.706Z,9.18
2018-05-11T21:15:04.167Z,15.02
2018-05-11T21:17:31.608Z,10.55
2018-05-11T21:19:59.115Z,10.85
2018-05-11T21:22:26.540Z,13.52
2018-05-11T21:24:53.986Z,11.63
2018-05-11T21:27:21.438Z,10.98
2018-05-11T21:29:48.909Z,10.15
2018-05-11T21:32:16.356Z,11.32
2018-05-11T21:34:43.809Z,13.88
2018-05-11T21:37:11.254Z,10.60
2018-05-11T21:39:39.459Z,10.20
2018-05-11T21:42:06.964Z,10.98
2018-05-11T21:44:34.431Z,10.05
2018-05-11T21:47:02.640Z,15.50
2018-05-11T21:49:30.102Z,12.00
2018-05-11T21:51:57.565Z,11.88
2018-05-11T21:54:25.016Z,11.38
2018-05-11T21:56:52.465Z,13.60
2018-05-11T21:59:19.919Z,9.82
2018-05-11T22:01:47.413Z,10.20
2018-05-11T22:04:14.962Z,9.32
2018-05-11T22:06:42.348Z,13.10
2018-05-11T22:09:09.785Z,12.75
2018-05-11T22:11:37.243Z,12.55
2018-05-11T22:14:04.682Z,11.20
2018-05-11T22:16:32.136Z,11.43
2018-05-11T22:18:59.600Z,10.82
2018-05-11T22:21:27.096Z,14.98
2018-05-11T22:23:54.514Z,12.23
2018-05-11T22:26:21.965Z,12.15
2018-05-11T22:28:49.413Z,10.43
2018-05-11T22:31:16.882Z,10.93
2018-05-11T22:33:44.331Z,12.02
2018-05-11T22:36:11.788Z,13.73
2018-05-11T22:38:39.223Z,10.75
2018-05-11T22:41:06.675Z,11.38
2018-05-11T22:43:34.153Z,9.35
2018-05-11T22:46:01.612Z,12.23
2018-05-11T22:48:29.055Z,9.82
2018-05-11T22:50:56.518Z,13.95
2018-05-11T22:53:23.956Z,13.40
2018-05-11T22:55:51.399Z,11.85
2018-05-11T22:58:19.612Z,15.48
2018-05-11T23:00:47.064Z,9.13
2018-05-11T23:03:14.514Z,15.20
2018-05-11T23:05:41.987Z,11.32
2018-05-11T23:08:09.441Z,14.07
2018-05-11T23:10:37.682Z,11.15
2018-05-11T23:13:05.975Z,10.63
2018-05-11T23:15:33.456Z,14.00
2018-05-11T23:18:00.900Z,18.95
2018-05-11T23:20:28.357Z,13.48
2018-05-11T23:22:55.829Z,10.77
2018-05-11T23:25:23.388Z,10.32
2018-05-11T23:27:50.963Z,12.10
2018-05-11T23:30:18.316Z,15.60
2018-05-11T23:32:45.776Z,12.98
2018-05-11T23:35:13.270Z,11.90
2018-05-11T23:37:41.488Z,10.07
2018-05-11T23:40:08.936Z,11.50
2018-05-11T23:42:36.393Z,11.63
2018-05-11T23:45:03.853Z,11.63
2018-05-11T23:47:31.310Z,12.45
2018-05-11T23:49:58.762Z,12.40
2018-05-11T23:52:26.225Z,10.85
2018-05-11T23:54:53.668Z,10.13
2018-05-11T23:57:21.117Z,13.77
2018-05-11T23:59:48.600Z,10.90
